createdAt,value
2022-09-07T00:01:20.456Z,1.83
2022-09-07T00:03:49.669Z,1.65
2022-09-07T00:06:18.745Z,1.60
2022-09-07T00:08:47.780Z,2.13
2022-09-07T00:11:20.544Z,2.03
2022-09-07T00:13:51.318Z,1.80
2022-09-07T00:21:25.615Z,2.05
2022-09-07T00:23:55.816Z,1.60
2022-09-07T00:26:31.103Z,1.95
2022-09-07T00:29:03.088Z,1.52
2022-09-07T00:31:33.637Z,1.35
2022-09-07T00:34:06.231Z,1.48
2022-09-07T00:36:37.168Z,1.30
2022-09-07T00:41:50.847Z,1.27
2022-09-07T00:45:16.702Z,1.20
2022-09-07T00:47:59.715Z,1.85
2022-09-07T00:50:40.387Z,1.55
2022-09-07T00:53:15.695Z,1.48
2022-09-07T00:55:52.261Z,1.60
2022-09-07T00:58:27.159Z,1.67
2022-09-07T01:01:15.841Z,1.77
2022-09-07T01:03:53.842Z,1.63
2022-09-07T01:06:29.050Z,1.70
2022-09-07T01:09:05.229Z,1.40
2022-09-07T01:11:37.504Z,1.48
2022-09-07T01:14:16.933Z,1.38
2022-09-07T01:17:04.999Z,1.63
2022-09-07T01:20:15.364Z,1.25
2022-09-07T01:23:36.420Z,1.20
2022-09-07T01:27:01.560Z,1.40
2022-09-07T01:29:59.647Z,1.60
2022-09-07T01:32:49.083Z,1.60
2022-09-07T01:35:34.452Z,1.80
2022-09-07T01:38:20.518Z,1.60
2022-09-07T01:41:00.178Z,1.77
2022-09-07T01:43:45.869Z,1.58
2022-09-07T01:46:25.564Z,1.77
2022-09-07T01:49:03.228Z,1.50
2022-09-07T01:51:53.690Z,1.67
2022-09-07T01:54:32.497Z,2.80
2022-09-07T01:57:14.442Z,3.08
2022-09-07T01:59:51.351Z,2.88
2022-09-07T02:02:32.537Z,3.80
2022-09-07T02:05:14.012Z,3.03
2022-09-07T02:07:51.156Z,3.20
2022-09-07T02:10:30.180Z,3.60
2022-09-07T02:13:09.848Z,3.45
2022-09-07T02:15:50.512Z,3.67
2022-09-07T02:18:27.411Z,3.90
2022-09-07T02:21:02.343Z,3.80
2022-09-07T02:23:41.147Z,3.88
2022-09-07T02:26:19.692Z,3.63
2022-09-07T02:28:50.871Z,3.88
2022-09-07T02:31:21.570Z,4.25
2022-09-07T02:33:55.511Z,4.25
2022-09-07T02:36:38.838Z,4.40
2022-09-07T02:39:10.335Z,5.82
2022-09-07T02:41:51.773Z,7.75
2022-09-07T02:44:28.799Z,8.00
2022-09-07T02:47:32.992Z,8.98
2022-09-07T02:50:37.185Z,10.20
2022-09-07T02:53:41.297Z,8.90
2022-09-07T02:56:31.073Z,7.43
2022-09-07T02:59:15.585Z,6.35
2022-09-07T03:02:02.735Z,6.43
2022-09-07T03:04:46.966Z,6.47
2022-09-07T03:07:25.767Z,5.95
2022-09-07T03:10:00.714Z,6.35
2022-09-07T03:12:44.898Z,5.40
2022-09-07T03:15:16.496Z,4.65
2022-09-07T03:17:49.103Z,4.43
2022-09-07T03:20:20.368Z,5.50
2022-09-07T03:22:55.198Z,4.50
2022-09-07T03:25:27.649Z,5.00
2022-09-07T03:27:58.202Z,5.40
2022-09-07T03:30:28.608Z,5.03
2022-09-07T03:32:59.050Z,5.55
2022-09-07T03:35:29.515Z,5.85
2022-09-07T03:38:02.420Z,6.10
2022-09-07T03:40:33.170Z,6.38
2022-09-07T03:43:06.391Z,7.07
2022-09-07T03:45:36.704Z,7.53
2022-09-07T03:48:15.009Z,7.72
2022-09-07T03:50:45.559Z,8.90
2022-09-07T03:53:18.425Z,8.98
2022-09-07T03:56:00.202Z,9.30
2022-09-07T03:58:32.994Z,10.90
2022-09-07T04:01:07.717Z,11.23
2022-09-07T04:03:39.528Z,11.80
2022-09-07T04:06:10.104Z,11.63
2022-09-07T04:08:46.704Z,12.82
2022-09-07T04:11:21.924Z,12.10
2022-09-07T04:13:55.324Z,12.68
2022-09-07T04:16:36.191Z,12.98
2022-09-07T04:19:12.114Z,13.68
2022-09-07T04:21:47.278Z,13.45
2022-09-07T04:24:21.359Z,13.77
2022-09-07T04:26:57.855Z,14.70
2022-09-07T04:29:28.243Z,15.43
2022-09-07T04:32:01.566Z,14.88
2022-09-07T04:34:32.164Z,16.77
2022-09-07T04:37:02.457Z,15.13
2022-09-07T04:39:35.541Z,14.65
2022-09-07T04:42:06.011Z,15.63
2022-09-07T04:44:36.713Z,14.52
2022-09-07T04:47:07.129Z,15.13
2022-09-07T04:49:43.201Z,14.27
2022-09-07T04:52:13.555Z,12.90
2022-09-07T04:54:46.832Z,13.13
2022-09-07T04:57:17.116Z,12.70
2022-09-07T04:59:47.458Z,12.20
2022-09-07T05:02:17.884Z,12.27
2022-09-07T05:04:50.555Z,12.63
2022-09-07T05:07:20.879Z,12.40
2022-09-07T05:09:53.805Z,12.60
2022-09-07T05:12:24.071Z,12.48
2022-09-07T05:14:57.182Z,12.45
2022-09-07T05:17:28.206Z,13.52
2022-09-07T05:19:58.528Z,15.45
2022-09-07T05:22:29.016Z,14.52
2022-09-07T05:25:04.074Z,14.77
2022-09-07T05:27:34.322Z,15.70
2022-09-07T05:30:05.843Z,14.52
2022-09-07T05:32:38.928Z,15.48
2022-09-07T05:35:12.742Z,15.43
2022-09-07T05:37:53.389Z,15.32
2022-09-07T05:40:26.262Z,14.10
2022-09-07T05:43:00.917Z,13.68
2022-09-07T05:45:31.332Z,11.73
2022-09-07T05:48:01.669Z,10.57
2022-09-07T05:50:31.985Z,10.35
2022-09-07T05:53:02.487Z,9.75
2022-09-07T05:55:44.207Z,10.25
2022-09-07T05:58:17.776Z,9.45
2022-09-07T06:00:51.067Z,9.63
2022-09-07T06:03:24.980Z,9.27
2022-09-07T06:06:03.837Z,8.65
2022-09-07T06:08:35.697Z,8.68
2022-09-07T06:11:13.029Z,9.75
2022-09-07T06:13:46.201Z,8.20
2022-09-07T06:16:18.436Z,14.73
2022-09-07T06:18:58.807Z,9.18
2022-09-07T06:21:32.180Z,8.38
2022-09-07T06:24:02.492Z,7.07
2022-09-07T06:26:35.868Z,6.57
2022-09-07T06:29:06.526Z,5.95
2022-09-07T06:34:27.386Z,5.80
2022-09-07T06:36:57.641Z,5.93
2022-09-07T06:39:33.355Z,6.45
2022-09-07T06:42:06.560Z,5.60
2022-09-07T06:44:36.935Z,5.38
2022-09-07T06:47:07.383Z,4.88
2022-09-07T06:49:37.683Z,4.78
2022-09-07T06:52:11.092Z,4.40
2022-09-07T06:57:39.662Z,3.10
2022-09-07T07:00:12.055Z,2.90
2022-09-07T07:02:42.316Z,2.85
2022-09-07T07:05:13.300Z,2.95
2022-09-07T07:07:43.823Z,3.50
2022-09-07T07:10:14.139Z,3.22
2022-09-07T07:12:47.106Z,2.78
2022-09-07T07:15:24.978Z,2.70
2022-09-07T07:17:59.050Z,2.50
2022-09-07T07:20:32.926Z,2.75
2022-09-07T07:23:03.201Z,2.42
2022-09-07T07:25:34.023Z,2.10
2022-09-07T07:31:07.315Z,2.22
2022-09-07T07:33:40.103Z,2.22
2022-09-07T07:36:16.770Z,2.70
2022-09-07T07:39:05.192Z,2.20
2022-09-07T07:44:28.985Z,2.00
2022-09-07T07:46:59.486Z,2.17
2022-09-07T07:49:29.924Z,2.03
2022-09-07T07:54:50.748Z,1.70
2022-09-07T07:57:26.076Z,2.20
2022-09-07T07:59:59.206Z,1.80
2022-09-07T08:02:29.813Z,1.85
2022-09-07T08:05:00.102Z,2.03
2022-09-07T08:07:30.432Z,1.45
2022-09-07T08:10:00.664Z,1.77
2022-09-07T08:12:31.300Z,1.40
2022-09-07T08:15:04.449Z,1.70
2022-09-07T08:17:38.237Z,1.73
2022-09-07T08:20:09.815Z,1.58
2022-09-07T08:22:39.873Z,1.73
2022-09-07T08:25:12.014Z,2.13
2022-09-07T08:27:42.284Z,1.70
2022-09-07T08:30:15.650Z,1.48
2022-09-07T08:32:45.732Z,1.98
2022-09-07T08:35:15.837Z,1.90
2022-09-07T08:37:45.935Z,1.40
2022-09-07T08:40:20.582Z,1.50
2022-09-07T08:43:14.759Z,2.40
2022-09-07T08:45:55.544Z,1.88
2022-09-07T08:48:35.019Z,1.70
2022-09-07T08:51:15.795Z,1.83
2022-09-07T08:53:49.839Z,1.48
2022-09-07T08:56:33.466Z,1.45
2022-09-07T08:59:14.168Z,1.50
2022-09-07T09:07:50.644Z,1.40
2022-09-07T09:10:41.312Z,1.40
2022-09-07T09:13:21.807Z,1.33
2022-09-07T09:16:03.229Z,1.35
2022-09-07T09:18:54.442Z,1.27
2022-09-07T09:21:24.841Z,1.35
2022-09-07T09:24:08.615Z,1.05
2022-09-07T09:26:39.548Z,1.35
2022-09-07T09:29:17.430Z,1.55
2022-09-07T09:31:49.889Z,1.20
2022-09-07T09:34:27.959Z,1.52
2022-09-07T09:37:05.116Z,1.40
2022-09-07T09:39:42.658Z,1.52
2022-09-07T09:42:25.879Z,1.33
2022-09-07T09:45:07.079Z,1.50
2022-09-07T09:47:38.731Z,1.48
2022-09-07T09:53:29.529Z,1.55
2022-09-07T09:55:59.759Z,1.80
2022-09-07T10:01:35.971Z,1.60
2022-09-07T10:04:33.978Z,1.70
2022-09-07T10:07:28.747Z,1.25
2022-09-07T10:10:00.025Z,1.70
2022-09-07T10:12:35.665Z,1.40
2022-09-07T10:15:12.565Z,1.60
2022-09-07T10:17:46.299Z,1.70
2022-09-07T10:20:36.394Z,1.80
2022-09-07T10:23:23.333Z,1.63
2022-09-07T10:25:53.861Z,1.95
2022-09-07T10:29:06.571Z,2.10
2022-09-07T10:31:27.737Z,1.48
2022-09-07T10:34:26.863Z,1.58
2022-09-07T10:37:06.803Z,1.42
2022-09-07T10:39:45.269Z,1.83
2022-09-07T10:42:30.576Z,1.75
2022-09-07T10:45:20.460Z,1.60
2022-09-07T10:48:07.027Z,1.80
2022-09-07T10:50:49.338Z,2.60
2022-09-07T10:53:45.482Z,2.13
2022-09-07T10:56:27.005Z,1.58
2022-09-07T10:59:14.989Z,1.50
2022-09-07T11:01:58.501Z,1.77
2022-09-07T11:04:49.310Z,1.52
2022-09-07T11:07:48.656Z,1.50
2022-09-07T11:10:32.160Z,2.20
2022-09-07T11:13:12.170Z,1.65
2022-09-07T11:15:51.373Z,1.50
2022-09-07T11:18:32.826Z,1.48
2022-09-07T11:21:09.157Z,1.52
2022-09-07T11:23:47.421Z,1.45
2022-09-07T11:26:26.146Z,1.90
2022-09-07T11:32:01.410Z,1.92
2022-09-07T11:34:39.335Z,2.00
2022-09-07T11:37:19.580Z,2.10
2022-09-07T11:40:02.967Z,1.45
2022-09-07T11:42:44.128Z,1.80
2022-09-07T11:45:32.040Z,1.90
2022-09-07T11:48:10.504Z,2.10
2022-09-07T11:50:48.992Z,2.25
2022-09-07T11:53:26.935Z,2.10
2022-09-07T11:56:04.128Z,1.83
2022-09-07T11:59:12.307Z,1.90
2022-09-07T12:02:12.929Z,1.98
2022-09-07T12:05:10.449Z,2.38
2022-09-07T12:08:21.843Z,2.03
2022-09-07T12:11:23.526Z,2.15
2022-09-07T12:14:25.586Z,2.00
2022-09-07T12:17:37.099Z,1.80
2022-09-07T12:20:17.779Z,2.30
2022-09-07T12:23:05.480Z,3.25
2022-09-07T12:25:37.640Z,1.75
2022-09-07T12:28:07.766Z,1.90
2022-09-07T12:31:00.386Z,1.88
2022-09-07T12:33:39.156Z,1.30
2022-09-07T12:36:51.098Z,1.60
2022-09-07T12:39:26.888Z,1.67
2022-09-07T12:42:32.723Z,1.50
2022-09-07T12:45:51.987Z,1.83
2022-09-07T12:48:42.239Z,2.10
2022-09-07T12:54:37.923Z,1.42
2022-09-07T12:57:35.021Z,2.35
2022-09-07T13:00:23.218Z,1.80
2022-09-07T13:09:37.203Z,1.70
2022-09-07T13:15:53.446Z,1.60
2022-09-07T13:18:43.802Z,1.80
2022-09-07T13:21:35.274Z,1.75
2022-09-07T13:24:56.424Z,1.85
2022-09-07T13:27:47.353Z,1.70
2022-09-07T13:30:33.606Z,1.60
2022-09-07T13:33:48.792Z,1.50
2022-09-07T13:36:43.201Z,1.48
2022-09-07T13:39:21.479Z,1.67
2022-09-07T13:41:58.121Z,1.40
2022-09-07T13:44:36.286Z,1.60
2022-09-07T13:47:18.716Z,1.60
2022-09-07T13:50:18.796Z,1.40
2022-09-07T13:53:32.483Z,1.50
2022-09-07T13:56:18.593Z,1.63
2022-09-07T13:58:53.926Z,1.30
2022-09-07T14:01:30.590Z,1.23
2022-09-07T14:04:07.713Z,1.05
2022-09-07T14:06:40.098Z,0.90
2022-09-07T14:09:19.452Z,1.10
2022-09-07T14:11:52.471Z,1.17
2022-09-07T14:14:32.614Z,1.00
2022-09-07T14:17:08.520Z,0.90
2022-09-07T14:19:42.193Z,0.77
2022-09-07T14:22:18.595Z,0.93
2022-09-07T14:24:56.227Z,0.98
2022-09-07T14:27:36.538Z,0.90
2022-09-07T14:30:32.010Z,0.95
2022-09-07T14:33:06.809Z,1.10
2022-09-07T14:35:43.180Z,1.05
2022-09-07T14:41:24.070Z,0.90
2022-09-07T14:44:00.109Z,0.93
2022-09-07T14:46:34.234Z,1.13
2022-09-07T14:49:09.518Z,0.90
2022-09-07T14:51:48.346Z,0.90
2022-09-07T14:54:24.871Z,0.98
2022-09-07T14:57:33.739Z,0.90
2022-09-07T15:00:30.471Z,1.15
2022-09-07T15:03:03.268Z,0.82
2022-09-07T15:05:34.404Z,1.17
2022-09-07T15:08:06.747Z,0.75
2022-09-07T15:13:47.054Z,0.90
2022-09-07T15:16:26.208Z,1.10
2022-09-07T15:19:02.173Z,1.52
2022-09-07T15:21:37.376Z,1.02
2022-09-07T15:24:08.129Z,0.85
2022-09-07T15:29:35.536Z,1.58
2022-09-07T15:32:11.920Z,0.80
2022-09-07T15:34:42.117Z,0.93
2022-09-07T15:40:17.804Z,1.15
2022-09-07T15:43:16.374Z,1.30
2022-09-07T15:45:40.792Z,1.40
2022-09-07T15:48:15.594Z,1.00
2022-09-07T15:50:45.686Z,1.10
2022-09-07T15:56:09.735Z,0.90
2022-09-07T15:58:39.818Z,1.00
2022-09-07T16:04:04.809Z,1.10
2022-09-07T16:06:38.519Z,1.00
2022-09-07T16:09:08.599Z,1.10
2022-09-07T16:11:39.325Z,1.08
2022-09-07T16:14:11.799Z,1.05
2022-09-07T16:19:36.176Z,0.90
2022-09-07T16:22:09.000Z,0.93
2022-09-07T16:24:42.488Z,1.15
2022-09-07T16:27:12.769Z,1.02
2022-09-07T16:29:42.893Z,0.93
2022-09-07T16:35:06.699Z,0.95
2022-09-07T16:37:37.063Z,1.15
2022-09-07T16:40:08.751Z,1.30
2022-09-07T16:42:41.161Z,1.13
2022-09-07T16:48:05.854Z,1.25
2022-09-07T16:50:36.189Z,1.00
2022-09-07T16:53:06.267Z,1.17
2022-09-07T16:55:36.319Z,1.10
2022-09-07T17:01:02.171Z,1.25
2022-09-07T17:03:45.294Z,1.10
2022-09-07T17:06:17.760Z,1.10
2022-09-07T17:08:48.361Z,1.00
2022-09-07T17:11:28.058Z,1.20
2022-09-07T17:14:00.183Z,1.13
2022-09-07T17:16:34.090Z,1.05
2022-09-07T17:22:03.503Z,1.27
2022-09-07T17:24:33.999Z,1.20
2022-09-07T17:27:06.977Z,1.35
2022-09-07T17:29:40.461Z,1.08
2022-09-07T17:32:26.337Z,1.30
2022-09-07T17:35:00.614Z,1.33
2022-09-07T17:37:36.606Z,1.15
2022-09-07T17:40:09.672Z,1.08
2022-09-07T17:45:31.164Z,1.17
2022-09-07T17:48:01.543Z,1.20
2022-09-07T17:50:34.224Z,1.20
2022-09-07T17:53:04.357Z,1.20
2022-09-07T17:55:34.535Z,1.30
2022-09-07T17:58:05.328Z,1.50
2022-09-07T18:00:36.881Z,1.10
2022-09-07T18:03:07.145Z,1.60
2022-09-07T18:05:39.837Z,1.20
2022-09-07T18:08:10.811Z,1.13
2022-09-07T18:13:36.255Z,1.20
2022-09-07T18:16:24.317Z,1.48
2022-09-07T18:18:55.658Z,1.40
2022-09-07T18:21:32.879Z,1.13
2022-09-07T18:24:05.840Z,1.25
2022-09-07T18:26:38.439Z,1.50
2022-09-07T18:29:26.260Z,1.48
2022-09-07T18:31:58.760Z,1.42
2022-09-07T18:34:37.317Z,1.52
2022-09-07T18:37:15.291Z,1.60
2022-09-07T18:39:45.345Z,1.80
2022-09-07T18:42:15.430Z,1.50
2022-09-07T18:47:35.790Z,1.30
2022-09-07T18:50:06.394Z,1.48
2022-09-07T18:53:07.197Z,1.40
2022-09-07T18:55:32.889Z,1.27
2022-09-07T18:58:06.211Z,1.42
2022-09-07T19:00:38.897Z,1.75
2022-09-07T19:03:09.065Z,1.40
2022-09-07T19:05:56.949Z,1.40
2022-09-07T19:08:33.561Z,1.50
2022-09-07T19:11:12.639Z,1.60
2022-09-07T19:13:42.929Z,1.45
2022-09-07T19:16:16.305Z,1.50
2022-09-07T19:18:49.280Z,1.77
2022-09-07T19:21:22.768Z,1.85
2022-09-07T19:24:03.695Z,1.42
2022-09-07T19:26:37.367Z,1.52
2022-09-07T19:29:15.192Z,1.38
2022-09-07T19:32:03.936Z,1.55
2022-09-07T19:34:34.858Z,1.60
2022-09-07T19:37:05.863Z,1.40
2022-09-07T19:39:38.710Z,1.60
2022-09-07T19:42:09.999Z,1.50
2022-09-07T19:44:43.097Z,1.60
2022-09-07T19:47:13.243Z,1.60
2022-09-07T19:49:48.911Z,1.77
2022-09-07T19:52:19.323Z,1.52
2022-09-07T19:54:57.222Z,1.70
2022-09-07T19:57:31.134Z,2.17
2022-09-07T20:00:01.233Z,2.17
2022-09-07T20:02:34.227Z,1.98
2022-09-07T20:05:04.311Z,1.85
2022-09-07T20:07:34.419Z,1.90
2022-09-07T20:10:07.760Z,1.92
2022-09-07T20:12:40.405Z,2.20
2022-09-07T20:15:12.538Z,1.67
2022-09-07T20:17:42.624Z,1.95
2022-09-07T20:20:13.531Z,1.88
2022-09-07T20:22:43.785Z,2.15
2022-09-07T20:25:17.076Z,1.98
2022-09-07T20:27:47.406Z,1.83
2022-09-07T20:30:18.110Z,2.13
2022-09-07T20:32:48.637Z,2.10
2022-09-07T20:35:19.366Z,2.00
2022-09-07T20:37:49.790Z,1.75
2022-09-07T20:40:23.429Z,1.90
2022-09-07T20:42:54.016Z,1.98
2022-09-07T20:45:28.542Z,2.30
2022-09-07T20:48:01.798Z,2.10
2022-09-07T20:50:32.455Z,2.13
2022-09-07T20:53:02.839Z,2.40
2022-09-07T20:55:36.124Z,2.20
2022-09-07T20:58:06.937Z,2.00
2022-09-07T21:00:37.644Z,2.20
2022-09-07T21:03:08.188Z,2.38
2022-09-07T21:05:39.609Z,2.35
2022-09-07T21:08:09.913Z,2.42
2022-09-07T21:10:46.309Z,2.40
2022-09-07T21:13:17.538Z,2.53
2022-09-07T21:15:48.761Z,2.60
2022-09-07T21:18:20.805Z,2.45
2022-09-07T21:21:18.754Z,2.13
2022-09-07T21:23:49.733Z,1.73
2022-09-07T21:26:26.745Z,1.92
2022-09-07T21:29:02.017Z,2.28
2022-09-07T21:31:34.897Z,2.28
2022-09-07T21:34:05.933Z,2.10
2022-09-07T21:36:36.575Z,2.25
2022-09-07T21:39:08.801Z,2.28
2022-09-07T21:41:45.262Z,2.28
2022-09-07T21:44:18.421Z,2.00
2022-09-07T21:46:49.032Z,1.83
2022-09-07T21:49:19.480Z,2.08
2022-09-07T21:51:52.737Z,2.03
2022-09-07T21:54:23.183Z,1.75
2022-09-07T21:56:56.346Z,2.00
2022-09-07T21:59:29.207Z,2.15
2022-09-07T22:01:59.736Z,1.80
2022-09-07T22:04:30.186Z,2.03
2022-09-07T22:07:03.441Z,2.20
2022-09-07T22:09:36.847Z,2.50
2022-09-07T22:12:13.128Z,2.33
2022-09-07T22:14:43.524Z,2.10
2022-09-07T22:17:14.319Z,2.17
2022-09-07T22:19:45.235Z,2.58
2022-09-07T22:22:15.660Z,2.50
2022-09-07T22:24:46.105Z,2.08
2022-09-07T22:27:19.178Z,2.08
2022-09-07T22:29:49.587Z,2.58
2022-09-07T22:32:19.904Z,2.20
2022-09-07T22:34:51.758Z,1.90
2022-09-07T22:37:22.406Z,2.08
2022-09-07T22:39:52.887Z,2.10
2022-09-07T22:42:26.175Z,2.13
2022-09-07T22:44:58.924Z,2.22
2022-09-07T22:47:29.360Z,2.10
2022-09-07T22:49:59.674Z,2.20
2022-09-07T22:52:30.145Z,2.30
2022-09-07T22:55:00.548Z,2.13
2022-09-07T22:57:44.323Z,2.25
2022-09-07T23:00:17.014Z,2.55
2022-09-07T23:02:53.673Z,2.15
2022-09-07T23:05:24.180Z,1.92
2022-09-07T23:07:54.846Z,2.03
2022-09-07T23:10:25.357Z,2.40
2022-09-07T23:12:59.522Z,2.10
2022-09-07T23:15:30.019Z,2.10
2022-09-07T23:18:01.076Z,2.25
2022-09-07T23:20:31.396Z,2.00
2022-09-07T23:23:02.037Z,2.13
2022-09-07T23:25:32.418Z,2.20
2022-09-07T23:28:06.390Z,2.30
2022-09-07T23:30:37.634Z,2.10
2022-09-07T23:33:08.154Z,1.80
2022-09-07T23:35:41.401Z,2.10
2022-09-07T23:38:15.658Z,2.00
2022-09-07T23:40:46.049Z,2.50
2022-09-07T23:43:18.978Z,2.47
2022-09-07T23:45:49.457Z,2.08
2022-09-07T23:48:20.205Z,2.03
2022-09-07T23:50:51.392Z,2.20
2022-09-07T23:53:22.877Z,1.98
2022-09-07T23:55:55.227Z,2.00
2022-09-07T23:58:28.497Z,2.00
